sensor_id;sensor_type;location;lat;lon;timestamp;temperature;humidity
73750;SHT30;62058;48.406;-4.514;2022-11-27T00:01:19;15.24;93.77
73750;SHT30;62058;48.406;-4.514;2022-11-27T00:03:45;15.24;93.36
73750;SHT30;62058;48.406;-4.514;2022-11-27T00:06:22;15.24;93.57
73750;SHT30;62058;48.406;-4.514;2022-11-27T00:08:48;15.24;93.37
73750;SHT30;62058;48.406;-4.514;2022-11-27T00:11:21;15.27;93.69
73750;SHT30;62058;48.406;-4.514;2022-11-27T00:13:47;15.25;93.71
73750;SHT30;62058;48.406;-4.514;2022-11-27T00:16:14;15.24;93.34
73750;SHT30;62058;48.406;-4.514;2022-11-27T00:18:40;15.21;93.86
73750;SHT30;62058;48.406;-4.514;2022-11-27T00:21:18;15.19;93.91
73750;SHT30;62058;48.406;-4.514;2022-11-27T00:23:46;15.19;94.02
73750;SHT30;62058;48.406;-4.514;2022-11-27T00:26:11;15.21;93.78
73750;SHT30;62058;48.406;-4.514;2022-11-27T00:28:37;15.22;94.14
73750;SHT30;62058;48.406;-4.514;2022-11-27T00:31:18;15.21;93.73
73750;SHT30;62058;48.406;-4.514;2022-11-27T00:33:44;15.18;93.52
73750;SHT30;62058;48.406;-4.514;2022-11-27T00:36:11;15.18;93.65
73750;SHT30;62058;48.406;-4.514;2022-11-27T00:38:36;15.18;94.15
73750;SHT30;62058;48.406;-4.514;2022-11-27T00:41:11;15.18;93.78
73750;SHT30;62058;48.406;-4.514;2022-11-27T00:43:41;15.22;94.07
73750;SHT30;62058;48.406;-4.514;2022-11-27T00:46:07;15.27;93.97
73750;SHT30;62058;48.406;-4.514;2022-11-27T00:48:36;15.24;94.08
73750;SHT30;62058;48.406;-4.514;2022-11-27T00:51:06;15.27;93.58
73750;SHT30;62058;48.406;-4.514;2022-11-27T00:53:32;15.28;93.96
73750;SHT30;62058;48.406;-4.514;2022-11-27T00:56:01;15.29;93.58
73750;SHT30;62058;48.406;-4.514;2022-11-27T00:58:27;15.28;93.39
73750;SHT30;62058;48.406;-4.514;2022-11-27T01:00:59;15.22;93.41
73750;SHT30;62058;48.406;-4.514;2022-11-27T01:03:26;15.22;93.43
73750;SHT30;62058;48.406;-4.514;2022-11-27T01:05:52;15.22;94.01
73750;SHT30;62058;48.406;-4.514;2022-11-27T01:08:17;15.17;93.34
73750;SHT30;62058;48.406;-4.514;2022-11-27T01:10:54;15.15;93.48
73750;SHT30;62058;48.406;-4.514;2022-11-27T01:13:23;15.18;93.80
73750;SHT30;62058;48.406;-4.514;2022-11-27T01:16:08;15.19;94.19
73750;SHT30;62058;48.406;-4.514;2022-11-27T01:18:34;15.18;93.47
73750;SHT30;62058;48.406;-4.514;2022-11-27T01:21:01;15.15;93.74
73750;SHT30;62058;48.406;-4.514;2022-11-27T01:23:26;15.14;93.76
73750;SHT30;62058;48.406;-4.514;2022-11-27T01:25:52;15.12;92.92
73750;SHT30;62058;48.406;-4.514;2022-11-27T01:28:21;15.17;93.54
73750;SHT30;62058;48.406;-4.514;2022-11-27T01:30:47;15.12;92.96
73750;SHT30;62058;48.406;-4.514;2022-11-27T01:33:13;15.12;92.90
73750;SHT30;62058;48.406;-4.514;2022-11-27T01:35:38;15.12;93.16
73750;SHT30;62058;48.406;-4.514;2022-11-27T01:38:08;15.08;93.59
73750;SHT30;62058;48.406;-4.514;2022-11-27T01:40:34;15.08;93.78
73750;SHT30;62058;48.406;-4.514;2022-11-27T01:42:59;15.08;94.20
73750;SHT30;62058;48.406;-4.514;2022-11-27T01:45:24;15.05;94.16
73750;SHT30;62058;48.406;-4.514;2022-11-27T01:47:53;15.08;94.74
73750;SHT30;62058;48.406;-4.514;2022-11-27T01:50:33;15.09;94.83
73750;SHT30;62058;48.406;-4.514;2022-11-27T01:53:12;15.09;94.35
73750;SHT30;62058;48.406;-4.514;2022-11-27T01:55:44;15.12;94.71
73750;SHT30;62058;48.406;-4.514;2022-11-27T01:58:16;15.12;94.78
73750;SHT30;62058;48.406;-4.514;2022-11-27T02:00:42;15.12;94.33
73750;SHT30;62058;48.406;-4.514;2022-11-27T02:03:08;15.11;94.39
73750;SHT30;62058;48.406;-4.514;2022-11-27T02:05:33;15.12;94.08
73750;SHT30;62058;48.406;-4.514;2022-11-27T02:08:03;15.08;93.76
73750;SHT30;62058;48.406;-4.514;2022-11-27T02:13:38;15.17;94.61
73750;SHT30;62058;48.406;-4.514;2022-11-27T02:16:42;15.11;93.52
73750;SHT30;62058;48.406;-4.514;2022-11-27T02:22:06;15.11;93.21
73750;SHT30;62058;48.406;-4.514;2022-11-27T02:29:58;15.09;92.80
73750;SHT30;62058;48.406;-4.514;2022-11-27T02:35:03;15.18;93.43
73750;SHT30;62058;48.406;-4.514;2022-11-27T02:37:45;15.18;93.35
73750;SHT30;62058;48.406;-4.514;2022-11-27T02:40:27;15.18;93.15
73750;SHT30;62058;48.406;-4.514;2022-11-27T02:43:00;15.18;93.16
73750;SHT30;62058;48.406;-4.514;2022-11-27T02:45:32;15.18;93.96
73750;SHT30;62058;48.406;-4.514;2022-11-27T02:47:59;15.18;93.68
73750;SHT30;62058;48.406;-4.514;2022-11-27T02:50:26;15.19;93.93
73750;SHT30;62058;48.406;-4.514;2022-11-27T02:52:58;15.15;93.26
73750;SHT30;62058;48.406;-4.514;2022-11-27T02:55:26;15.15;93.20
73750;SHT30;62058;48.406;-4.514;2022-11-27T02:57:56;15.15;93.74
73750;SHT30;62058;48.406;-4.514;2022-11-27T03:00:23;15.18;93.39
73750;SHT30;62058;48.406;-4.514;2022-11-27T03:02:53;15.15;93.22
73750;SHT30;62058;48.406;-4.514;2022-11-27T03:05:22;15.17;93.66
73750;SHT30;62058;48.406;-4.514;2022-11-27T03:08:02;15.12;93.03
73750;SHT30;62058;48.406;-4.514;2022-11-27T03:10:33;15.14;93.28
73750;SHT30;62058;48.406;-4.514;2022-11-27T03:13:01;15.14;93.69
73750;SHT30;62058;48.406;-4.514;2022-11-27T03:15:39;15.14;94.03
73750;SHT30;62058;48.406;-4.514;2022-11-27T03:18:19;15.12;93.09
73750;SHT30;62058;48.406;-4.514;2022-11-27T03:20:50;15.12;93.91
73750;SHT30;62058;48.406;-4.514;2022-11-27T03:23:17;15.15;94.05
73750;SHT30;62058;48.406;-4.514;2022-11-27T03:25:43;15.09;93.46
73750;SHT30;62058;48.406;-4.514;2022-11-27T03:28:09;15.14;93.87
73750;SHT30;62058;48.406;-4.514;2022-11-27T03:30:36;15.12;93.50
73750;SHT30;62058;48.406;-4.514;2022-11-27T03:33:04;15.14;93.78
73750;SHT30;62058;48.406;-4.514;2022-11-27T03:35:29;15.09;93.03
73750;SHT30;62058;48.406;-4.514;2022-11-27T03:37:56;15.09;93.08
73750;SHT30;62058;48.406;-4.514;2022-11-27T03:40:28;15.04;92.60
73750;SHT30;62058;48.406;-4.514;2022-11-27T03:43:03;15.11;93.48
73750;SHT30;62058;48.406;-4.514;2022-11-27T03:51:21;15.04;92.41
73750;SHT30;62058;48.406;-4.514;2022-11-27T03:53:59;15.04;92.96
73750;SHT30;62058;48.406;-4.514;2022-11-27T04:01:24;14.99;95.02
73750;SHT30;62058;48.406;-4.514;2022-11-27T04:03:50;14.94;95.60
73750;SHT30;62058;48.406;-4.514;2022-11-27T04:06:16;14.89;95.47
73750;SHT30;62058;48.406;-4.514;2022-11-27T04:08:44;14.85;95.53
73750;SHT30;62058;48.406;-4.514;2022-11-27T04:11:10;14.81;96.39
73750;SHT30;62058;48.406;-4.514;2022-11-27T04:13:35;14.84;95.99
73750;SHT30;62058;48.406;-4.514;2022-11-27T04:16:01;14.87;95.98
73750;SHT30;62058;48.406;-4.514;2022-11-27T04:18:27;14.85;95.71
73750;SHT30;62058;48.406;-4.514;2022-11-27T04:20:52;14.84;95.49
73750;SHT30;62058;48.406;-4.514;2022-11-27T04:23:18;14.84;95.33
73750;SHT30;62058;48.406;-4.514;2022-11-27T04:25:43;14.76;94.66
73750;SHT30;62058;48.406;-4.514;2022-11-27T04:28:09;14.74;95.01
73750;SHT30;62058;48.406;-4.514;2022-11-27T04:30:34;14.73;94.50
73750;SHT30;62058;48.406;-4.514;2022-11-27T04:32:59;14.71;94.68
73750;SHT30;62058;48.406;-4.514;2022-11-27T04:35:25;14.71;94.69
73750;SHT30;62058;48.406;-4.514;2022-11-27T04:37:50;14.74;94.95
73750;SHT30;62058;48.406;-4.514;2022-11-27T04:40:15;14.71;94.94
73750;SHT30;62058;48.406;-4.514;2022-11-27T04:42:41;14.71;94.57
73750;SHT30;62058;48.406;-4.514;2022-11-27T04:45:07;14.70;94.67
73750;SHT30;62058;48.406;-4.514;2022-11-27T04:47:33;14.73;95.21
73750;SHT30;62058;48.406;-4.514;2022-11-27T04:49:58;14.73;95.37
73750;SHT30;62058;48.406;-4.514;2022-11-27T04:52:23;14.78;95.14
73750;SHT30;62058;48.406;-4.514;2022-11-27T04:54:49;14.83;95.07
73750;SHT30;62058;48.406;-4.514;2022-11-27T04:57:14;14.85;95.19
73750;SHT30;62058;48.406;-4.514;2022-11-27T04:59:39;14.89;95.18
73750;SHT30;62058;48.406;-4.514;2022-11-27T05:02:05;14.88;95.25
73750;SHT30;62058;48.406;-4.514;2022-11-27T05:04:30;14.88;94.99
73750;SHT30;62058;48.406;-4.514;2022-11-27T05:06:56;14.88;95.18
73750;SHT30;62058;48.406;-4.514;2022-11-27T05:09:21;14.85;94.96
73750;SHT30;62058;48.406;-4.514;2022-11-27T05:11:46;14.85;94.95
73750;SHT30;62058;48.406;-4.514;2022-11-27T05:14:12;14.87;95.07
73750;SHT30;62058;48.406;-4.514;2022-11-27T05:16:47;14.88;94.99
73750;SHT30;62058;48.406;-4.514;2022-11-27T05:19:13;14.87;95.21
73750;SHT30;62058;48.406;-4.514;2022-11-27T05:21:40;14.85;94.82
73750;SHT30;62058;48.406;-4.514;2022-11-27T05:24:06;14.85;94.91
73750;SHT30;62058;48.406;-4.514;2022-11-27T05:26:32;14.85;95.07
73750;SHT30;62058;48.406;-4.514;2022-11-27T05:28:57;14.83;95.08
73750;SHT30;62058;48.406;-4.514;2022-11-27T05:31:22;14.84;94.99
73750;SHT30;62058;48.406;-4.514;2022-11-27T05:33:48;14.83;95.03
73750;SHT30;62058;48.406;-4.514;2022-11-27T05:36:13;14.85;95.05
73750;SHT30;62058;48.406;-4.514;2022-11-27T05:38:39;14.84;95.16
73750;SHT30;62058;48.406;-4.514;2022-11-27T05:41:04;14.91;95.31
73750;SHT30;62058;48.406;-4.514;2022-11-27T05:43:30;14.88;95.24
73750;SHT30;62058;48.406;-4.514;2022-11-27T05:45:55;14.88;95.04
73750;SHT30;62058;48.406;-4.514;2022-11-27T05:48:20;14.84;94.68
73750;SHT30;62058;48.406;-4.514;2022-11-27T05:50:46;14.83;94.92
73750;SHT30;62058;48.406;-4.514;2022-11-27T05:53:11;14.83;95.01
73750;SHT30;62058;48.406;-4.514;2022-11-27T05:55:36;14.88;95.17
73750;SHT30;62058;48.406;-4.514;2022-11-27T05:58:02;14.91;95.30
73750;SHT30;62058;48.406;-4.514;2022-11-27T06:00:27;14.91;95.22
73750;SHT30;62058;48.406;-4.514;2022-11-27T06:02:54;14.94;95.41
73750;SHT30;62058;48.406;-4.514;2022-11-27T06:05:19;14.95;95.27
73750;SHT30;62058;48.406;-4.514;2022-11-27T06:07:44;14.97;95.12
73750;SHT30;62058;48.406;-4.514;2022-11-27T06:10:10;14.92;95.15
73750;SHT30;62058;48.406;-4.514;2022-11-27T06:12:35;14.91;95.32
73750;SHT30;62058;48.406;-4.514;2022-11-27T06:15:01;14.95;95.30
73750;SHT30;62058;48.406;-4.514;2022-11-27T06:17:27;14.98;95.38
73750;SHT30;62058;48.406;-4.514;2022-11-27T06:19:52;14.95;95.28
73750;SHT30;62058;48.406;-4.514;2022-11-27T06:22:17;14.98;95.33
73750;SHT30;62058;48.406;-4.514;2022-11-27T06:24:43;15.02;95.34
73750;SHT30;62058;48.406;-4.514;2022-11-27T06:27:08;14.98;95.13
73750;SHT30;62058;48.406;-4.514;2022-11-27T06:29:38;14.97;95.12
73750;SHT30;62058;48.406;-4.514;2022-11-27T06:32:04;14.94;95.18
73750;SHT30;62058;48.406;-4.514;2022-11-27T06:34:29;14.95;94.99
73750;SHT30;62058;48.406;-4.514;2022-11-27T06:36:55;14.95;95.23
73750;SHT30;62058;48.406;-4.514;2022-11-27T06:39:20;14.97;95.35
73750;SHT30;62058;48.406;-4.514;2022-11-27T06:41:45;14.99;95.27
73750;SHT30;62058;48.406;-4.514;2022-11-27T06:44:11;14.97;95.10
73750;SHT30;62058;48.406;-4.514;2022-11-27T06:46:39;14.97;94.98
73750;SHT30;62058;48.406;-4.514;2022-11-27T06:49:04;14.94;95.12
73750;SHT30;62058;48.406;-4.514;2022-11-27T06:51:31;14.97;95.45
73750;SHT30;62058;48.406;-4.514;2022-11-27T06:53:58;14.94;95.04
73750;SHT30;62058;48.406;-4.514;2022-11-27T06:56:26;14.91;94.97
73750;SHT30;62058;48.406;-4.514;2022-11-27T06:58:57;14.91;95.26
73750;SHT30;62058;48.406;-4.514;2022-11-27T07:01:24;14.89;95.08
73750;SHT30;62058;48.406;-4.514;2022-11-27T07:03:50;14.89;95.11
73750;SHT30;62058;48.406;-4.514;2022-11-27T07:06:19;14.91;95.12
73750;SHT30;62058;48.406;-4.514;2022-11-27T07:08:45;14.88;95.11
73750;SHT30;62058;48.406;-4.514;2022-11-27T07:11:15;14.92;95.35
73750;SHT30;62058;48.406;-4.514;2022-11-27T07:13:42;14.85;94.96
73750;SHT30;62058;48.406;-4.514;2022-11-27T07:16:10;14.87;95.21
73750;SHT30;62058;48.406;-4.514;2022-11-27T07:18:38;14.83;95.03
73750;SHT30;62058;48.406;-4.514;2022-11-27T07:21:04;14.80;95.18
73750;SHT30;62058;48.406;-4.514;2022-11-27T07:23:30;14.84;95.35
73750;SHT30;62058;48.406;-4.514;2022-11-27T07:25:57;14.84;95.29
73750;SHT30;62058;48.406;-4.514;2022-11-27T07:28:23;14.81;95.04
73750;SHT30;62058;48.406;-4.514;2022-11-27T07:30:55;14.81;94.96
73750;SHT30;62058;48.406;-4.514;2022-11-27T07:33:21;14.80;95.27
73750;SHT30;62058;48.406;-4.514;2022-11-27T07:35:47;14.78;95.19
73750;SHT30;62058;48.406;-4.514;2022-11-27T07:38:12;14.78;95.26
73750;SHT30;62058;48.406;-4.514;2022-11-27T07:40:38;14.80;95.32
73750;SHT30;62058;48.406;-4.514;2022-11-27T07:43:03;14.80;95.35
73750;SHT30;62058;48.406;-4.514;2022-11-27T07:45:28;14.83;95.18
73750;SHT30;62058;48.406;-4.514;2022-11-27T07:47:54;14.83;95.40
73750;SHT30;62058;48.406;-4.514;2022-11-27T07:50:19;14.84;95.29
73750;SHT30;62058;48.406;-4.514;2022-11-27T07:52:45;14.84;95.32
73750;SHT30;62058;48.406;-4.514;2022-11-27T07:55:10;14.84;95.40
73750;SHT30;62058;48.406;-4.514;2022-11-27T07:57:35;14.91;95.56
73750;SHT30;62058;48.406;-4.514;2022-11-27T08:00:01;14.94;95.48
73750;SHT30;62058;48.406;-4.514;2022-11-27T08:02:26;14.91;95.33
73750;SHT30;62058;48.406;-4.514;2022-11-27T08:04:52;14.89;95.29
73750;SHT30;62058;48.406;-4.514;2022-11-27T08:07:17;14.92;95.49
73750;SHT30;62058;48.406;-4.514;2022-11-27T08:09:42;14.97;95.26
73750;SHT30;62058;48.406;-4.514;2022-11-27T08:12:08;14.98;95.48
73750;SHT30;62058;48.406;-4.514;2022-11-27T08:14:33;15.02;95.65
73750;SHT30;62058;48.406;-4.514;2022-11-27T08:16:58;15.07;95.73
73750;SHT30;62058;48.406;-4.514;2022-11-27T08:19:24;15.04;95.35
73750;SHT30;62058;48.406;-4.514;2022-11-27T08:21:49;15.05;95.55
73750;SHT30;62058;48.406;-4.514;2022-11-27T08:24:15;15.05;95.53
73750;SHT30;62058;48.406;-4.514;2022-11-27T08:26:40;15.14;95.54
73750;SHT30;62058;48.406;-4.514;2022-11-27T08:29:06;15.15;95.59
73750;SHT30;62058;48.406;-4.514;2022-11-27T08:31:32;15.21;95.65
73750;SHT30;62058;48.406;-4.514;2022-11-27T08:33:58;15.18;95.29
73750;SHT30;62058;48.406;-4.514;2022-11-27T08:36:25;15.18;95.40
73750;SHT30;62058;48.406;-4.514;2022-11-27T08:38:51;15.21;95.50
73750;SHT30;62058;48.406;-4.514;2022-11-27T08:41:16;15.19;95.57
73750;SHT30;62058;48.406;-4.514;2022-11-27T08:43:41;15.17;95.17
73750;SHT30;62058;48.406;-4.514;2022-11-27T08:46:07;15.11;95.21
73750;SHT30;62058;48.406;-4.514;2022-11-27T08:48:34;15.09;95.06
73750;SHT30;62058;48.406;-4.514;2022-11-27T08:51:05;15.07;95.40
73750;SHT30;62058;48.406;-4.514;2022-11-27T08:53:31;15.09;95.58
73750;SHT30;62058;48.406;-4.514;2022-11-27T08:56:04;15.11;95.52
73750;SHT30;62058;48.406;-4.514;2022-11-27T08:58:30;15.15;95.60
73750;SHT30;62058;48.406;-4.514;2022-11-27T09:00:55;15.19;95.62
73750;SHT30;62058;48.406;-4.514;2022-11-27T09:03:20;15.22;95.56
73750;SHT30;62058;48.406;-4.514;2022-11-27T09:05:46;15.24;95.53
73750;SHT30;62058;48.406;-4.514;2022-11-27T09:08:11;15.19;95.13
73750;SHT30;62058;48.406;-4.514;2022-11-27T09:10:40;15.18;95.24
73750;SHT30;62058;48.406;-4.514;2022-11-27T09:13:06;15.18;95.17
73750;SHT30;62058;48.406;-4.514;2022-11-27T09:15:31;15.18;95.53
73750;SHT30;62058;48.406;-4.514;2022-11-27T09:17:56;15.21;95.48
73750;SHT30;62058;48.406;-4.514;2022-11-27T09:20:22;15.25;95.59
73750;SHT30;62058;48.406;-4.514;2022-11-27T09:22:47;15.28;95.60
73750;SHT30;62058;48.406;-4.514;2022-11-27T09:25:15;15.35;95.65
73750;SHT30;62058;48.406;-4.514;2022-11-27T09:27:41;15.28;95.28
73750;SHT30;62058;48.406;-4.514;2022-11-27T09:30:06;15.19;95.04
73750;SHT30;62058;48.406;-4.514;2022-11-27T09:32:32;15.18;95.21
73750;SHT30;62058;48.406;-4.514;2022-11-27T09:34:58;15.14;94.95
73750;SHT30;62058;48.406;-4.514;2022-11-27T09:37:23;15.18;95.44
73750;SHT30;62058;48.406;-4.514;2022-11-27T09:39:48;15.21;95.21
73750;SHT30;62058;48.406;-4.514;2022-11-27T09:42:39;15.21;95.26
73750;SHT30;62058;48.406;-4.514;2022-11-27T09:45:09;15.19;95.14
73750;SHT30;62058;48.406;-4.514;2022-11-27T09:47:38;15.19;95.02
73750;SHT30;62058;48.406;-4.514;2022-11-27T09:50:27;15.21;95.26
73750;SHT30;62058;48.406;-4.514;2022-11-27T09:52:56;15.22;95.58
73750;SHT30;62058;48.406;-4.514;2022-11-27T09:55:31;15.24;95.21
73750;SHT30;62058;48.406;-4.514;2022-11-27T09:58:04;15.29;95.40
73750;SHT30;62058;48.406;-4.514;2022-11-27T10:00:30;15.27;94.76
73750;SHT30;62058;48.406;-4.514;2022-11-27T10:02:55;15.22;94.93
73750;SHT30;62058;48.406;-4.514;2022-11-27T10:05:23;15.29;95.46
73750;SHT30;62058;48.406;-4.514;2022-11-27T10:16:09;15.34;95.26
73750;SHT30;62058;48.406;-4.514;2022-11-27T10:18:42;15.36;95.53
73750;SHT30;62058;48.406;-4.514;2022-11-27T10:21:28;15.36;95.43
73750;SHT30;62058;48.406;-4.514;2022-11-27T10:24:12;15.34;95.31
73750;SHT30;62058;48.406;-4.514;2022-11-27T10:26:44;15.35;95.28
73750;SHT30;62058;48.406;-4.514;2022-11-27T10:31:53;15.28;95.24
73750;SHT30;62058;48.406;-4.514;2022-11-27T10:34:38;15.27;95.23
73750;SHT30;62058;48.406;-4.514;2022-11-27T10:39:41;15.12;95.00
73750;SHT30;62058;48.406;-4.514;2022-11-27T10:42:31;15.17;95.54
73750;SHT30;62058;48.406;-4.514;2022-11-27T10:45:47;15.18;95.58
73750;SHT30;62058;48.406;-4.514;2022-11-27T10:47:46;15.08;93.68
73750;SHT30;62058;48.406;-4.514;2022-11-27T10:50:16;15.08;93.57
73750;SHT30;62058;48.406;-4.514;2022-11-27T10:52:52;15.09;94.52
73750;SHT30;62058;48.406;-4.514;2022-11-27T10:55:55;15.09;94.52
73750;SHT30;62058;48.406;-4.514;2022-11-27T10:58:33;14.95;92.64
73750;SHT30;62058;48.406;-4.514;2022-11-27T11:01:06;14.98;93.88
73750;SHT30;62058;48.406;-4.514;2022-11-27T11:03:32;14.92;94.45
73750;SHT30;62058;48.406;-4.514;2022-11-27T11:06:00;14.94;94.08
73750;SHT30;62058;48.406;-4.514;2022-11-27T11:08:27;14.98;94.71
73750;SHT30;62058;48.406;-4.514;2022-11-27T11:11:03;14.95;94.66
73750;SHT30;62058;48.406;-4.514;2022-11-27T11:13:43;14.92;93.52
73750;SHT30;62058;48.406;-4.514;2022-11-27T11:18:49;15.02;94.92
73750;SHT30;62058;48.406;-4.514;2022-11-27T11:21:18;15.07;94.65
73750;SHT30;62058;48.406;-4.514;2022-11-27T11:23:54;15.09;95.23
73750;SHT30;62058;48.406;-4.514;2022-11-27T11:28:52;15.17;95.14
73750;SHT30;62058;48.406;-4.514;2022-11-27T11:31:20;15.09;93.77
73750;SHT30;62058;48.406;-4.514;2022-11-27T11:36:39;14.89;94.39
73750;SHT30;62058;48.406;-4.514;2022-11-27T11:39:05;14.85;95.05
73750;SHT30;62058;48.406;-4.514;2022-11-27T11:41:37;14.80;94.56
73750;SHT30;62058;48.406;-4.514;2022-11-27T11:44:21;14.71;94.23
73750;SHT30;62058;48.406;-4.514;2022-11-27T11:46:52;14.77;95.35
73750;SHT30;62058;48.406;-4.514;2022-11-27T11:49:23;14.78;95.13
73750;SHT30;62058;48.406;-4.514;2022-11-27T11:52:13;14.68;94.36
73750;SHT30;62058;48.406;-4.514;2022-11-27T11:55:15;14.67;94.79
73750;SHT30;62058;48.406;-4.514;2022-11-27T12:00:45;14.68;95.25
73750;SHT30;62058;48.406;-4.514;2022-11-27T12:09:02;14.66;95.26
73750;SHT30;62058;48.406;-4.514;2022-11-27T12:14:14;14.71;94.21
73750;SHT30;62058;48.406;-4.514;2022-11-27T12:16:56;14.78;95.11
73750;SHT30;62058;48.406;-4.514;2022-11-27T12:22:32;14.83;94.93
73750;SHT30;62058;48.406;-4.514;2022-11-27T12:25:32;14.95;95.48
73750;SHT30;62058;48.406;-4.514;2022-11-27T12:31:16;14.85;93.46
73750;SHT30;62058;48.406;-4.514;2022-11-27T12:33:55;14.83;93.91
73750;SHT30;62058;48.406;-4.514;2022-11-27T12:39:34;14.83;93.13
73750;SHT30;62058;48.406;-4.514;2022-11-27T12:48:06;14.57;93.79
73750;SHT30;62058;48.406;-4.514;2022-11-27T12:50:50;14.57;94.89
73750;SHT30;62058;48.406;-4.514;2022-11-27T12:53:22;14.51;94.69
73750;SHT30;62058;48.406;-4.514;2022-11-27T12:56:14;14.43;93.38
73750;SHT30;62058;48.406;-4.514;2022-11-27T12:58:53;14.51;94.45
73750;SHT30;62058;48.406;-4.514;2022-11-27T13:01:35;14.53;95.07
73750;SHT30;62058;48.406;-4.514;2022-11-27T13:04:27;14.47;92.25
73750;SHT30;62058;48.406;-4.514;2022-11-27T13:07:15;14.51;92.61
73750;SHT30;62058;48.406;-4.514;2022-11-27T13:12:56;14.61;95.04
73750;SHT30;62058;48.406;-4.514;2022-11-27T13:15:53;14.66;94.09
73750;SHT30;62058;48.406;-4.514;2022-11-27T13:21:32;14.76;94.79
73750;SHT30;62058;48.406;-4.514;2022-11-27T13:24:01;14.67;91.14
73750;SHT30;62058;48.406;-4.514;2022-11-27T13:26:39;14.78;94.84
73750;SHT30;62058;48.406;-4.514;2022-11-27T13:29:18;14.77;94.67
73750;SHT30;62058;48.406;-4.514;2022-11-27T13:31:49;14.67;93.74
73750;SHT30;62058;48.406;-4.514;2022-11-27T13:34:19;14.54;93.62
73750;SHT30;62058;48.406;-4.514;2022-11-27T13:36:55;14.57;94.16
73750;SHT30;62058;48.406;-4.514;2022-11-27T13:42:02;14.57;94.06
73750;SHT30;62058;48.406;-4.514;2022-11-27T13:44:29;14.56;94.76
73750;SHT30;62058;48.406;-4.514;2022-11-27T13:46:59;14.47;92.11
73750;SHT30;62058;48.406;-4.514;2022-11-27T13:49:33;14.56;94.32
73750;SHT30;62058;48.406;-4.514;2022-11-27T13:52:05;14.59;94.25
73750;SHT30;62058;48.406;-4.514;2022-11-27T13:54:32;14.61;93.70
73750;SHT30;62058;48.406;-4.514;2022-11-27T13:57:12;14.53;90.91
73750;SHT30;62058;48.406;-4.514;2022-11-27T13:59:39;14.53;92.40
73750;SHT30;62058;48.406;-4.514;2022-11-27T14:02:05;14.63;94.72
73750;SHT30;62058;48.406;-4.514;2022-11-27T14:04:32;14.68;94.71
73750;SHT30;62058;48.406;-4.514;2022-11-27T14:06:59;14.63;90.92
73750;SHT30;62058;48.406;-4.514;2022-11-27T14:09:32;14.66;94.06
73750;SHT30;62058;48.406;-4.514;2022-11-27T14:11:59;14.68;94.72
73750;SHT30;62058;48.406;-4.514;2022-11-27T14:14:26;14.70;94.92
73750;SHT30;62058;48.406;-4.514;2022-11-27T14:16:55;14.56;94.36
73750;SHT30;62058;48.406;-4.514;2022-11-27T14:19:30;14.50;93.70
73750;SHT30;62058;48.406;-4.514;2022-11-27T14:21:55;14.33;92.35
73750;SHT30;62058;48.406;-4.514;2022-11-27T14:24:36;14.22;93.31
73750;SHT30;62058;48.406;-4.514;2022-11-27T14:27:32;14.10;93.10
73750;SHT30;62058;48.406;-4.514;2022-11-27T14:30:13;13.98;92.67
73750;SHT30;62058;48.406;-4.514;2022-11-27T14:32:46;13.95;93.11
73750;SHT30;62058;48.406;-4.514;2022-11-27T14:35:20;13.90;93.60
73750;SHT30;62058;48.406;-4.514;2022-11-27T14:37:45;13.89;93.88
73750;SHT30;62058;48.406;-4.514;2022-11-27T14:40:13;13.85;93.53
73750;SHT30;62058;48.406;-4.514;2022-11-27T14:42:39;13.79;91.90
73750;SHT30;62058;48.406;-4.514;2022-11-27T14:45:15;13.72;89.91
73750;SHT30;62058;48.406;-4.514;2022-11-27T14:47:46;13.82;94.08
73750;SHT30;62058;48.406;-4.514;2022-11-27T14:50:13;13.78;89.93
73750;SHT30;62058;48.406;-4.514;2022-11-27T14:52:41;13.86;94.42
73750;SHT30;62058;48.406;-4.514;2022-11-27T14:55:17;13.89;93.14
73750;SHT30;62058;48.406;-4.514;2022-11-27T14:57:44;13.89;93.09
73750;SHT30;62058;48.406;-4.514;2022-11-27T15:00:21;13.90;93.27
73750;SHT30;62058;48.406;-4.514;2022-11-27T15:02:49;13.90;92.76
73750;SHT30;62058;48.406;-4.514;2022-11-27T15:05:35;13.95;93.85
73750;SHT30;62058;48.406;-4.514;2022-11-27T15:08:02;13.95;92.73
73750;SHT30;62058;48.406;-4.514;2022-11-27T15:13:01;13.89;88.82
73750;SHT30;62058;48.406;-4.514;2022-11-27T15:15:29;13.85;89.48
73750;SHT30;62058;48.406;-4.514;2022-11-27T15:18:01;13.85;91.75
73750;SHT30;62058;48.406;-4.514;2022-11-27T15:20:40;13.85;91.83
73750;SHT30;62058;48.406;-4.514;2022-11-27T15:23:20;13.82;90.39
73750;SHT30;62058;48.406;-4.514;2022-11-27T15:26:05;13.81;94.29
73750;SHT30;62058;48.406;-4.514;2022-11-27T15:31:31;13.75;93.54
73750;SHT30;62058;48.406;-4.514;2022-11-27T15:36:31;13.71;91.35
73750;SHT30;62058;48.406;-4.514;2022-11-27T15:39:50;13.73;94.31
73750;SHT30;62058;48.406;-4.514;2022-11-27T15:41:57;13.78;94.15
73750;SHT30;62058;48.406;-4.514;2022-11-27T15:44:24;13.82;93.37
73750;SHT30;62058;48.406;-4.514;2022-11-27T15:46:50;13.99;92.86
73750;SHT30;62058;48.406;-4.514;2022-11-27T15:49:17;14.17;94.07
73750;SHT30;62058;48.406;-4.514;2022-11-27T15:51:44;14.29;89.57
73750;SHT30;62058;48.406;-4.514;2022-11-27T15:54:09;14.33;89.69
73750;SHT30;62058;48.406;-4.514;2022-11-27T15:56:34;14.34;88.31
73750;SHT30;62058;48.406;-4.514;2022-11-27T15:59:00;14.37;89.25
73750;SHT30;62058;48.406;-4.514;2022-11-27T16:01:25;14.36;90.43
73750;SHT30;62058;48.406;-4.514;2022-11-27T16:03:51;14.33;88.84
73750;SHT30;62058;48.406;-4.514;2022-11-27T16:06:16;14.27;90.82
73750;SHT30;62058;48.406;-4.514;2022-11-27T16:08:42;14.17;91.57
73750;SHT30;62058;48.406;-4.514;2022-11-27T16:11:09;14.02;87.47
73750;SHT30;62058;48.406;-4.514;2022-11-27T16:13:43;13.86;87.27
73750;SHT30;62058;48.406;-4.514;2022-11-27T16:16:08;13.79;91.80
73750;SHT30;62058;48.406;-4.514;2022-11-27T16:18:34;13.69;88.78
73750;SHT30;62058;48.406;-4.514;2022-11-27T16:21:08;13.58;88.09
73750;SHT30;62058;48.406;-4.514;2022-11-27T16:23:35;13.45;89.76
73750;SHT30;62058;48.406;-4.514;2022-11-27T16:26:00;13.38;88.74
73750;SHT30;62058;48.406;-4.514;2022-11-27T16:28:27;13.31;89.51
73750;SHT30;62058;48.406;-4.514;2022-11-27T16:30:55;13.25;89.75
73750;SHT30;62058;48.406;-4.514;2022-11-27T16:33:24;13.14;88.56
73750;SHT30;62058;48.406;-4.514;2022-11-27T16:35:50;13.07;89.50
73750;SHT30;62058;48.406;-4.514;2022-11-27T16:38:15;12.99;91.46
73750;SHT30;62058;48.406;-4.514;2022-11-27T16:40:41;12.94;90.08
73750;SHT30;62058;48.406;-4.514;2022-11-27T16:43:07;12.81;89.14
73750;SHT30;62058;48.406;-4.514;2022-11-27T16:45:35;12.79;90.98
73750;SHT30;62058;48.406;-4.514;2022-11-27T16:48:01;12.75;91.27
73750;SHT30;62058;48.406;-4.514;2022-11-27T16:50:26;12.69;92.24
73750;SHT30;62058;48.406;-4.514;2022-11-27T16:52:54;12.61;89.60
73750;SHT30;62058;48.406;-4.514;2022-11-27T16:55:20;12.61;92.43
73750;SHT30;62058;48.406;-4.514;2022-11-27T16:57:45;12.60;90.43
73750;SHT30;62058;48.406;-4.514;2022-11-27T17:00:12;12.63;92.50